Visit the IPS Meteostar Home Page IPSM Bethel / Bethel Airport FORECAST

Bethel, Alaska

3 miles away at Bethel / Bethel Airport 18:17 GMT

Weather:

Mist

Wind:

S 5 mph

Temperature:

38 ° F

Pressure:

29.46

Dew Point:

38 ° F

Relative Humidity:

100

Feels Like:

34 ° F

Visibility:

5 miles


Aviation Observations:

SPECI PABE 251817Z 19004KT 5SM BR FEW001 OVC044 03/03 A2943 RMK AO2 T00330033 $ =

National Weather Service Forecast:
Kuskokwim Delta

kuskokwim delta- including the cities of bethel, hooper bay, and nunivak island
343 AM AKDT TUE APR 25 2017

TODAY

Patchy morning fog. Cloudy with scattered rain showers. Highs in the lower 40s to lower 50s. Variable wind 10 mph.

TONIGHT

Cloudy with scattered rain showers. Patchy fog. Lows in the 30s. Variable wind 10 mph.

WEDNESDAY

Patchy morning fog. Cloudy with scattered rain showers. Highs in the lower 40s to lower 50s. Variable wind 10 mph.

WEDNESDAY NIGHT

Cloudy with scattered rain showers. Lows in the lower to mid 30s. Variable wind 10 mph.

THURSDAY

Mostly cloudy with scattered rain showers. Highs in the mid 30s to upper 40s. Variable wind 10 mph.

THURSDAY NIGHT

Mostly cloudy with isolated rain showers. Lows 30 to 35.

FRIDAY THROUGH MONDAY

Mostly cloudy with a chance of rain showers. Highs in the mid 40s. Lows in the mid 30s.
temperature / precipitation

bethel 52 37 50 / 70 70 40



Visit the IPS Meteostar Home Page